createdAt,value
2018-09-18T00:01:38.879Z,87.20
2018-09-18T00:06:43.573Z,87.90
2018-09-18T00:11:47.172Z,88.80
2018-09-18T00:16:50.794Z,88.70
2018-09-18T00:21:54.538Z,88.90
2018-09-18T00:26:58.182Z,89.30
2018-09-18T00:32:03.254Z,88.60
2018-09-18T00:37:06.966Z,88.70
2018-09-18T00:42:10.585Z,89.80
2018-09-18T00:47:14.184Z,88.20
2018-09-18T00:52:17.982Z,88.10
2018-09-18T00:57:21.559Z,87.70
2018-09-18T01:02:25.145Z,88.90
2018-09-18T01:07:28.882Z,89.80
2018-09-18T01:12:32.436Z,89.60
2018-09-18T01:17:36.065Z,89.50
2018-09-18T01:22:39.751Z,89.90
2018-09-18T01:27:43.274Z,90.60
2018-09-18T01:32:47.884Z,90.50
2018-09-18T01:37:51.470Z,90.50
2018-09-18T01:42:55.029Z,90.10
2018-09-18T01:47:58.575Z,89.70
2018-09-18T01:53:02.290Z,90.20
2018-09-18T01:58:05.875Z,90.50
2018-09-18T02:03:09.467Z,90.50
2018-09-18T02:08:13.073Z,90.40
2018-09-18T02:13:16.789Z,90.90
2018-09-18T02:18:20.627Z,91.20
2018-09-18T02:23:24.269Z,90.20
2018-09-18T02:28:27.835Z,90.50
2018-09-18T02:33:31.466Z,90.90
2018-09-18T02:38:36.170Z,91.00
2018-09-18T02:43:39.872Z,91.20
2018-09-18T02:48:43.444Z,90.50
2018-09-18T02:53:47.158Z,91.20
2018-09-18T02:58:50.879Z,90.60
2018-09-18T03:03:54.457Z,91.20
2018-09-18T03:08:58.401Z,90.50
2018-09-18T03:14:02.016Z,90.70
2018-09-18T03:19:05.598Z,91.00
2018-09-18T03:24:09.311Z,91.00
2018-09-18T03:29:16.876Z,91.30
2018-09-18T03:34:20.430Z,91.30
2018-09-18T03:39:25.099Z,91.00
2018-09-18T03:44:28.773Z,91.40
2018-09-18T03:49:32.409Z,91.90
2018-09-18T03:54:36.085Z,91.40
2018-09-18T03:59:39.687Z,91.90
2018-09-18T04:04:43.281Z,91.40
2018-09-18T04:09:47.056Z,91.10
2018-09-18T04:14:50.634Z,91.40
2018-09-18T04:20:06.504Z,91.90
2018-09-18T04:25:10.086Z,92.20
2018-09-18T04:30:13.997Z,91.80
2018-09-18T04:35:17.523Z,92.00
2018-09-18T04:40:21.234Z,91.50
2018-09-18T04:45:24.878Z,91.60
2018-09-18T04:50:28.575Z,91.50
2018-09-18T04:55:32.175Z,91.90
2018-09-18T05:00:35.741Z,92.00
2018-09-18T05:05:39.290Z,92.50
2018-09-18T05:10:42.903Z,91.50
2018-09-18T05:15:46.482Z,91.70
2018-09-18T05:20:50.164Z,91.60
2018-09-18T05:25:53.862Z,92.30
2018-09-18T05:30:57.450Z,92.20
2018-09-18T05:36:00.979Z,92.40
2018-09-18T05:41:04.611Z,92.50
2018-09-18T05:46:08.180Z,92.20
2018-09-18T05:51:11.822Z,92.50
2018-09-18T05:56:15.574Z,92.50
2018-09-18T06:01:19.284Z,92.90
2018-09-18T06:06:22.857Z,92.70
2018-09-18T06:11:26.399Z,93.00
2018-09-18T06:16:29.935Z,92.70
2018-09-18T06:21:35.554Z,92.70
2018-09-18T06:26:39.093Z,91.90
2018-09-18T06:31:44.801Z,92.20
2018-09-18T06:36:49.380Z,91.70
2018-09-18T06:41:52.894Z,92.10
2018-09-18T06:46:56.466Z,92.60
2018-09-18T06:52:01.106Z,92.50
2018-09-18T06:57:04.803Z,91.90
2018-09-18T07:02:08.419Z,92.80
2018-09-18T07:07:11.956Z,91.00
2018-09-18T07:12:19.004Z,91.60
2018-09-18T07:17:22.734Z,91.30
2018-09-18T07:27:54.767Z,91.70
2018-09-18T07:32:58.361Z,90.90
2018-09-18T07:38:01.966Z,89.80
2018-09-18T07:43:05.554Z,90.00
2018-09-18T07:48:21.414Z,87.90
2018-09-18T07:53:26.058Z,85.80
2018-09-18T07:58:30.681Z,85.10
2018-09-18T08:03:34.247Z,83.00
2018-09-18T08:08:37.831Z,78.90
2018-09-18T08:13:41.462Z,73.40
2018-09-18T08:18:46.108Z,70.50
2018-09-18T08:23:49.655Z,63.20
2018-09-18T08:28:53.462Z,63.30
2018-09-18T08:33:57.057Z,60.40
2018-09-18T08:39:00.712Z,57.70
2018-09-18T08:44:10.163Z,54.60
2018-09-18T08:49:13.928Z,53.40
2018-09-18T08:54:19.564Z,54.20
2018-09-18T08:59:23.127Z,54.20
2018-09-18T09:04:26.760Z,50.20
2018-09-18T09:09:32.465Z,49.30
2018-09-18T09:14:36.166Z,51.10
2018-09-18T09:19:39.707Z,54.80
2018-09-18T09:24:50.975Z,52.60
2018-09-18T09:29:54.857Z,51.60
2018-09-18T09:35:00.644Z,49.80
2018-09-18T09:40:04.542Z,49.30
2018-09-18T09:45:12.152Z,50.90
2018-09-18T09:50:15.707Z,48.50
2018-09-18T09:55:19.276Z,48.70
2018-09-18T10:00:30.262Z,47.30
2018-09-18T10:05:33.975Z,47.90
2018-09-18T10:10:37.616Z,47.90
2018-09-18T10:15:41.302Z,46.60
2018-09-18T10:20:44.879Z,43.80
2018-09-18T10:25:54.433Z,43.70
2018-09-18T10:30:58.186Z,43.70
2018-09-18T10:36:01.795Z,43.10
2018-09-18T10:41:05.537Z,42.30
2018-09-18T10:46:09.106Z,40.90
2018-09-18T10:51:14.586Z,42.30
2018-09-18T10:56:18.146Z,42.70
2018-09-18T11:01:21.713Z,41.20
2018-09-18T11:06:25.330Z,41.50
2018-09-18T11:11:28.893Z,41.60
2018-09-18T11:16:34.589Z,43.60
2018-09-18T11:21:38.554Z,44.50
2018-09-18T11:26:42.256Z,46.10
2018-09-18T11:31:46.038Z,46.80
2018-09-18T11:36:54.335Z,46.50
2018-09-18T11:41:58.008Z,47.10
2018-09-18T11:47:01.570Z,48.30
2018-09-18T11:52:05.158Z,49.50
2018-09-18T11:57:08.863Z,50.70
2018-09-18T12:02:12.435Z,51.80
2018-09-18T12:07:17.981Z,52.60
2018-09-18T12:12:21.789Z,52.80
2018-09-18T12:17:25.531Z,51.10
2018-09-18T12:22:29.207Z,51.00
2018-09-18T12:27:32.827Z,51.70
2018-09-18T12:32:36.547Z,51.20
2018-09-18T12:37:40.187Z,53.10
2018-09-18T12:42:43.786Z,52.70
2018-09-18T12:47:48.503Z,53.40
2018-09-18T12:52:52.203Z,53.60
2018-09-18T12:57:55.883Z,53.60
2018-09-18T13:02:59.634Z,53.30
2018-09-18T13:08:03.385Z,53.60
2018-09-18T13:13:09.168Z,52.40
2018-09-18T13:18:12.741Z,50.00
2018-09-18T13:23:16.364Z,47.70
2018-09-18T13:28:20.030Z,50.60
2018-09-18T13:33:23.865Z,51.60
2018-09-18T13:38:27.840Z,52.00
2018-09-18T13:43:38.123Z,51.20
2018-09-18T13:48:45.086Z,52.20
2018-09-18T13:53:49.756Z,50.30
2018-09-18T13:58:57.867Z,50.70
2018-09-18T14:04:02.533Z,51.10
2018-09-18T14:09:08.097Z,50.50
2018-09-18T14:14:14.825Z,51.80
2018-09-18T14:19:19.607Z,51.70
2018-09-18T14:24:23.363Z,52.10
2018-09-18T14:29:27.248Z,53.50
2018-09-18T14:34:33.138Z,52.40
2018-09-18T14:39:36.850Z,51.00
2018-09-18T14:44:40.460Z,51.10
2018-09-18T14:49:44.096Z,52.40
2018-09-18T14:54:47.734Z,52.10
2018-09-18T14:59:51.382Z,51.40
2018-09-18T15:04:55.085Z,50.40
2018-09-18T15:09:59.193Z,52.20
2018-09-18T15:15:02.778Z,52.60
2018-09-18T15:20:10.526Z,51.00
2018-09-18T15:25:14.146Z,51.90
2018-09-18T15:30:17.670Z,52.40
2018-09-18T15:35:21.374Z,50.60
2018-09-18T15:40:25.555Z,52.20
2018-09-18T15:45:29.263Z,51.80
2018-09-18T15:50:32.805Z,52.40
2018-09-18T15:55:36.609Z,51.70
2018-09-18T16:00:40.252Z,51.10
2018-09-18T16:05:53.707Z,52.30
2018-09-18T16:10:57.294Z,53.20
2018-09-18T16:16:00.918Z,54.90
2018-09-18T16:21:04.512Z,55.60
2018-09-18T16:26:15.439Z,56.70
2018-09-18T16:31:22.443Z,55.50
2018-09-18T16:36:28.334Z,56.20
2018-09-18T16:41:31.938Z,56.70
2018-09-18T16:46:35.756Z,57.60
2018-09-18T16:51:39.406Z,58.00
2018-09-18T16:56:43.013Z,58.30
2018-09-18T17:01:46.567Z,58.50
2018-09-18T17:06:50.596Z,59.30
2018-09-18T17:11:54.310Z,59.40
2018-09-18T17:16:57.888Z,59.70
2018-09-18T17:22:01.572Z,59.80
2018-09-18T17:27:07.296Z,60.20
2018-09-18T17:32:11.734Z,60.20
2018-09-18T17:37:16.481Z,61.00
2018-09-18T17:42:23.424Z,64.00
2018-09-18T17:47:32.944Z,64.50
2018-09-18T17:52:36.557Z,65.80
2018-09-18T17:57:40.126Z,64.80
2018-09-18T18:02:44.758Z,66.30
2018-09-18T18:07:48.318Z,68.00
2018-09-18T18:12:52.011Z,68.70
2018-09-18T18:17:55.726Z,71.10
2018-09-18T18:22:59.275Z,71.90
2018-09-18T18:28:03.874Z,69.50
2018-09-18T18:33:07.458Z,71.80
2018-09-18T18:38:11.250Z,72.60
2018-09-18T18:43:15.074Z,72.60
2018-09-18T18:48:18.844Z,71.60
2018-09-18T18:53:22.421Z,74.10
2018-09-18T18:58:26.111Z,74.00
2018-09-18T19:03:29.947Z,73.80
2018-09-18T19:08:35.885Z,75.60
2018-09-18T19:13:42.198Z,75.20
2018-09-18T19:18:45.777Z,76.40
2018-09-18T19:23:49.416Z,77.70
2018-09-18T19:28:53.499Z,75.90
2018-09-18T19:33:59.914Z,78.50
2018-09-18T19:39:07.714Z,79.40
2018-09-18T19:44:12.508Z,78.30
2018-09-18T19:49:16.246Z,78.30
2018-09-18T19:54:23.107Z,79.70
2018-09-18T19:59:27.907Z,81.00
2018-09-18T20:04:31.701Z,82.40
2018-09-18T20:09:35.397Z,83.60
2018-09-18T20:14:39.066Z,82.70
2018-09-18T20:19:42.965Z,84.20
2018-09-18T20:24:51.010Z,83.30
2018-09-18T20:29:58.430Z,85.00
2018-09-18T20:35:02.154Z,84.80
2018-09-18T20:40:06.026Z,85.50
2018-09-18T20:45:09.631Z,86.20
2018-09-18T20:50:13.265Z,86.60
2018-09-18T20:55:17.698Z,86.50
2018-09-18T21:00:21.304Z,86.10
2018-09-18T21:05:24.851Z,85.00
2018-09-18T21:10:28.382Z,86.50
2018-09-18T21:15:31.991Z,86.50
2018-09-18T21:20:35.586Z,86.70
2018-09-18T21:26:15.245Z,87.00
2018-09-18T21:31:18.821Z,87.40
2018-09-18T21:36:22.386Z,87.50
2018-09-18T21:41:26.032Z,89.20
2018-09-18T21:46:29.646Z,89.10
2018-09-18T21:51:33.219Z,89.30
2018-09-18T21:56:36.793Z,88.40
2018-09-18T22:01:40.461Z,89.20
2018-09-18T22:06:44.050Z,89.20
2018-09-18T22:11:47.620Z,90.10
2018-09-18T22:16:55.171Z,90.30
2018-09-18T22:21:58.808Z,90.40
2018-09-18T22:27:02.479Z,90.90
2018-09-18T22:32:06.049Z,90.90
2018-09-18T22:37:09.673Z,90.70
2018-09-18T22:42:13.436Z,89.80
2018-09-18T22:47:21.315Z,90.30
2018-09-18T22:52:24.843Z,90.90
2018-09-18T22:57:28.511Z,90.30
2018-09-18T23:02:32.019Z,91.00
2018-09-18T23:07:35.635Z,91.40
2018-09-18T23:12:40.233Z,91.50
2018-09-18T23:17:43.787Z,90.20
2018-09-18T23:22:47.331Z,90.70
2018-09-18T23:27:51.146Z,91.20
2018-09-18T23:32:54.636Z,91.50
2018-09-18T23:37:58.169Z,90.40
2018-09-18T23:43:02.031Z,90.50
2018-09-18T23:48:05.726Z,91.40
2018-09-18T23:53:09.316Z,91.70
2018-09-18T23:58:13.023Z,90.80
